Time;durP1;ratioP1;P1;durP2;ratioP2;P2;SDS_P1;SDS_P2;PMS_P1;PMS_P2;Temp;Humidity;BMP_temperature;BMP_pressure;BME280_temperature;BME280_humidity;BME280_pressure;Samples;Min_cycle;Max_cycle;Signal;HPM_P1;HPM_P2
2022/07/22 00:02:28;;;;;;;10.40;4.10;;;;;;;15.04;100.00;102024.63;5281666;28;20021;-79
2022/07/22 00:04:59;;;;;;;13.53;5.50;;;;;;;15.01;100.00;102027.28;5282244;28;20050;-78
2022/07/22 00:07:30;;;;;;;14.67;4.40;;;;;;;15.07;100.00;102021.94;5281981;28;20025;-78
2022/07/22 00:10:03;;;;;;;10.27;5.67;;;;;;;15.03;100.00;102013.22;5281738;28;20439;-78
2022/07/22 00:12:34;;;;;;;8.38;4.88;;;;;;;14.99;100.00;102018.53;5281561;28;20025;-79
2022/07/22 00:15:07;;;;;;;12.17;5.50;;;;;;;14.99;100.00;102010.66;5282177;28;20035;-79
2022/07/22 00:17:38;;;;;;;11.38;5.35;;;;;;;14.99;100.00;102015.91;5285410;28;20304;-79
2022/07/22 00:20:09;;;;;;;17.23;6.13;;;;;;;15.04;100.00;102012.34;5285192;28;20065;-79
2022/07/22 00:22:41;;;;;;;8.37;5.13;;;;;;;15.09;100.00;102010.53;5285367;28;20358;-78
2022/07/22 00:25:13;;;;;;;14.53;6.20;;;;;;;15.01;100.00;102017.63;5285910;28;20032;-78
2022/07/22 00:27:44;;;;;;;9.93;5.93;;;;;;;15.05;100.00;102014.09;5285768;28;20186;-78
2022/07/22 00:30:15;;;;;;;11.77;5.53;;;;;;;15.06;100.00;102017.59;5285055;28;20117;-78
2022/07/22 00:32:47;;;;;;;11.97;6.17;;;;;;;15.03;100.00;102018.47;5285633;28;20040;-78
2022/07/22 00:35:18;;;;;;;9.43;5.43;;;;;;;15.06;100.00;102012.34;5284921;28;20031;-79
2022/07/22 00:37:50;;;;;;;11.87;5.57;;;;;;;15.11;100.00;102014.00;5284958;28;20337;-78
2022/07/22 00:40:21;;;;;;;12.77;5.57;;;;;;;15.08;100.00;102018.44;5285088;28;20090;-78
2022/07/22 00:42:53;;;;;;;13.23;6.10;;;;;;;15.11;100.00;102013.16;5284902;28;20285;-77
2022/07/22 00:45:24;;;;;;;15.30;6.57;;;;;;;15.09;100.00;102010.53;5285221;28;20115;-78
2022/07/22 00:47:56;;;;;;;12.43;7.20;;;;;;;15.13;100.00;102006.09;5267058;28;20075;-78
2022/07/22 00:50:27;;;;;;;14.80;6.67;;;;;;;15.09;100.00;102007.91;5284911;28;20035;-78
2022/07/22 00:52:59;;;;;;;14.53;6.80;;;;;;;15.05;100.00;102002.72;5285047;28;20035;-77
2022/07/22 00:55:33;;;;;;;16.97;6.20;;;;;;;15.05;100.00;102005.34;5284788;28;20139;-78
2022/07/22 00:58:04;;;;;;;14.27;6.28;;;;;;;15.07;100.00;102004.44;5284481;28;20105;-78
2022/07/22 01:00:35;;;;;;;17.87;7.17;;;;;;;15.02;100.00;102001.00;5267321;28;20028;-78
2022/07/22 01:03:07;;;;;;;10.67;5.83;;;;;;;15.05;100.00;102000.97;5284962;28;20031;-78
2022/07/22 01:05:38;;;;;;;14.13;7.20;;;;;;;15.03;100.00;101994.84;5284488;28;20086;-78
2022/07/22 01:08:10;;;;;;;13.57;6.43;;;;;;;15.02;100.00;101989.63;5284820;28;20047;-78
2022/07/22 01:10:41;;;;;;;12.43;6.93;;;;;;;14.99;100.00;101992.28;5266405;28;20024;-79
2022/07/22 01:13:12;;;;;;;20.53;8.03;;;;;;;14.97;100.00;101992.28;5284213;28;20730;-78
2022/07/22 01:15:44;;;;;;;16.13;6.80;;;;;;;14.99;100.00;101981.75;5284638;28;20029;-77
2022/07/22 01:18:16;;;;;;;14.25;6.65;;;;;;;14.98;100.00;101990.56;5284631;28;20021;-76
2022/07/22 01:20:47;;;;;;;12.13;6.63;;;;;;;14.95;100.00;101978.31;5284548;28;20074;-77
2022/07/22 01:23:18;;;;;;;17.70;7.90;;;;;;;14.93;100.00;101990.59;5284288;28;20038;-78
2022/07/22 01:25:50;;;;;;;17.80;7.83;;;;;;;14.92;100.00;101996.72;5283850;28;20075;-77
2022/07/22 01:28:23;;;;;;;12.47;7.00;;;;;;;14.94;100.00;101985.34;5283939;28;20359;-78
2022/07/22 01:30:55;;;;;;;15.48;6.82;;;;;;;14.88;100.00;101974.91;5284099;28;20367;-77
2022/07/22 01:33:26;;;;;;;15.93;6.93;;;;;;;14.77;100.00;101989.91;5284557;28;20041;-78
2022/07/22 01:35:58;;;;;;;18.40;7.10;;;;;;;14.65;100.00;101992.66;5284205;28;20037;-77
2022/07/22 01:38:29;;;;;;;14.10;7.03;;;;;;;14.50;100.00;101981.38;5265972;28;20510;-78
2022/07/22 01:41:01;;;;;;;13.67;7.13;;;;;;;14.44;100.00;101991.97;5283806;28;20041;-78
2022/07/22 01:43:33;;;;;;;17.27;8.87;;;;;;;14.36;100.00;101994.66;5261786;28;20409;-78
2022/07/22 01:46:05;;;;;;;19.65;7.75;;;;;;;14.28;100.00;101996.47;5263852;28;20419;-78
2022/07/22 01:48:36;;;;;;;17.75;7.55;;;;;;;14.19;100.00;101992.16;5263482;28;20017;-77
2022/07/22 01:51:08;;;;;;;18.33;7.47;;;;;;;14.10;100.00;101991.38;5263106;28;20074;-78
2022/07/22 01:53:39;;;;;;;18.23;9.80;;;;;;;14.05;100.00;101999.28;5264013;28;20032;-78
2022/07/22 01:56:11;;;;;;;15.23;7.23;;;;;;;13.98;100.00;101994.97;5263381;28;20025;-79
2022/07/22 01:58:42;;;;;;;11.50;7.13;;;;;;;13.94;100.00;101995.88;5261751;28;20073;-78
2022/07/22 02:01:14;;;;;;;17.33;7.93;;;;;;;13.85;100.00;101995.06;5262790;28;20021;-79
2022/07/22 02:03:45;;;;;;;17.43;9.03;;;;;;;13.86;100.00;101995.91;5263320;28;20112;-79
2022/07/22 02:06:16;;;;;;;16.77;7.70;;;;;;;13.89;100.00;101990.66;5262809;28;20025;-79
2022/07/22 02:08:48;;;;;;;16.97;8.40;;;;;;;13.91;100.00;101988.03;5262577;28;20035;-77
2022/07/22 02:11:19;;;;;;;16.87;8.93;;;;;;;13.93;100.00;101986.28;5261024;28;20475;-79
2022/07/22 02:13:50;;;;;;;16.73;7.40;;;;;;;13.98;100.00;101987.97;5262494;28;20021;-77
2022/07/22 02:16:22;;;;;;;15.43;7.53;;;;;;;14.03;100.00;101991.44;5262591;28;20037;-78
2022/07/22 02:18:53;;;;;;;19.20;7.83;;;;;;;14.15;100.00;101984.34;5262666;28;20478;-78
2022/07/22 02:21:25;;;;;;;16.10;8.67;;;;;;;14.20;100.00;101985.19;5262767;28;20032;-79
2022/07/22 02:23:56;;;;;;;14.63;7.67;;;;;;;14.17;100.00;101980.84;5260806;28;20028;-78
2022/07/22 02:26:27;;;;;;;12.37;7.43;;;;;;;14.22;100.00;101980.81;5262886;28;20419;-80
2022/07/22 02:28:59;;;;;;;19.47;8.50;;;;;;;14.28;100.00;101987.72;5261019;28;20444;-80
2022/07/22 02:31:30;;;;;;;15.30;8.57;;;;;;;14.31;100.00;101990.31;5263026;28;20021;-79
2022/07/22 02:34:02;;;;;;;17.20;7.57;;;;;;;14.30;100.00;101985.97;5262228;28;20036;-79
2022/07/22 02:36:33;;;;;;;15.43;7.73;;;;;;;14.32;100.00;101986.81;5261575;28;20029;-79
2022/07/22 02:39:05;;;;;;;23.43;8.63;;;;;;;14.31;100.00;101982.47;5261154;28;20040;-79
2022/07/22 02:41:36;;;;;;;14.03;7.30;;;;;;;14.29;100.00;101987.72;5262080;28;20033;-78
2022/07/22 02:44:07;;;;;;;13.90;7.57;;;;;;;14.41;100.00;101979.75;5279150;28;20066;-77
2022/07/22 02:46:39;;;;;;;17.33;8.20;;;;;;;14.42;100.00;101985.84;5282335;28;20071;-77
2022/07/22 02:49:10;;;;;;;14.40;7.83;;;;;;;14.49;100.00;101981.41;5264488;28;20040;-78
2022/07/22 02:51:41;;;;;;;13.50;8.57;;;;;;;14.51;100.00;101974.41;5264490;28;20031;-77
2022/07/22 02:54:13;;;;;;;13.67;7.97;;;;;;;14.50;100.00;101970.91;5281915;28;20020;-77
2022/07/22 02:56:44;;;;;;;16.93;9.50;;;;;;;14.45;100.00;101975.31;5282306;28;20051;-78
2022/07/22 02:59:16;;;;;;;15.20;8.23;;;;;;;14.51;100.00;101974.41;5282233;28;20082;-78
2022/07/22 03:01:47;;;;;;;15.23;8.20;;;;;;;14.52;100.00;101971.78;5282270;28;20025;-78
2022/07/22 03:04:18;;;;;;;12.83;7.20;;;;;;;14.46;100.00;101971.81;5282522;28;20047;-78
2022/07/22 03:06:50;;;;;;;12.47;7.33;;;;;;;14.46;100.00;101958.72;5282226;28;20028;-77
2022/07/22 03:09:21;;;;;;;14.50;8.37;;;;;;;14.45;100.00;101953.47;5264738;28;20024;-77
2022/07/22 03:11:53;;;;;;;16.30;8.13;;;;;;;14.43;100.00;101957.88;5264692;28;20155;-77
2022/07/22 03:14:24;;;;;;;11.87;7.57;;;;;;;14.48;100.00;101962.19;5282399;28;20028;-78
2022/07/22 03:16:55;;;;;;;15.57;9.10;;;;;;;14.40;100.00;101959.63;5281785;28;20044;-79
2022/07/22 03:19:27;;;;;;;14.87;9.13;;;;;;;14.37;100.00;101959.66;5282100;28;20166;-78
2022/07/22 03:21:58;;;;;;;14.57;7.37;;;;;;;14.40;100.00;101962.25;5282482;28;20360;-79
2022/07/22 03:24:29;;;;;;;14.10;7.77;;;;;;;14.40;100.00;101956.16;5282338;28;20452;-77
2022/07/22 03:27:01;;;;;;;15.57;7.93;;;;;;;14.37;100.00;101957.03;5282106;28;20063;-78
2022/07/22 03:29:32;;;;;;;17.33;8.27;;;;;;;14.38;100.00;101952.69;5281758;28;20096;-78
2022/07/22 03:32:04;;;;;;;16.37;8.17;;;;;;;14.43;100.00;101961.38;5282007;28;20032;-78
2022/07/22 03:34:35;;;;;;;17.90;8.23;;;;;;;14.35;100.00;101953.56;5281845;28;20029;-78
2022/07/22 03:37:06;;;;;;;15.80;7.80;;;;;;;14.42;100.00;101954.38;5281466;28;20367;-77
2022/07/22 03:39:38;;;;;;;16.80;8.37;;;;;;;14.38;100.00;101955.31;5282161;28;20332;-78
2022/07/22 03:42:09;;;;;;;17.60;8.37;;;;;;;14.29;100.00;101952.75;5263429;28;20165;-77
2022/07/22 03:44:41;;;;;;;18.80;8.80;;;;;;;14.30;100.00;101962.38;5281876;28;20467;-77
2022/07/22 03:47:17;;;;;;;13.23;7.50;;;;;;;14.31;100.00;101970.22;5281889;28;20141;-77
2022/07/22 03:49:49;;;;;;;16.17;8.65;;;;;;;14.32;100.00;101963.22;5281708;28;20032;-78
2022/07/22 03:52:21;;;;;;;14.93;9.65;;;;;;;14.31;100.00;101962.38;5284923;28;20035;-77
2022/07/22 03:54:52;;;;;;;18.93;8.27;;;;;;;14.28;100.00;101972.88;5285935;28;20033;-78
2022/07/22 03:57:24;;;;;;;18.70;8.37;;;;;;;14.32;100.00;101965.84;5285403;28;20366;-78
2022/07/22 03:59:55;;;;;;;14.03;7.93;;;;;;;14.34;100.00;101974.56;5285845;28;20377;-79
2022/07/22 04:02:26;;;;;;;13.97;8.17;;;;;;;14.39;100.00;101972.75;5286413;28;20166;-78
2022/07/22 04:04:58;;;;;;;14.77;7.77;;;;;;;14.46;100.00;101971.81;5285895;28;20451;-78
2022/07/22 04:07:29;;;;;;;15.80;8.03;;;;;;;14.42;100.00;101972.72;5285777;28;20121;-78
2022/07/22 04:10:06;;;;;;;15.77;9.27;;;;;;;14.50;100.00;101975.28;5285711;28;20028;-78
2022/07/22 04:12:40;;;;;;;13.70;8.38;;;;;;;14.55;100.00;101976.09;5286050;28;20032;-77
2022/07/22 04:15:11;;;;;;;17.17;8.55;;;;;;;14.53;100.00;101978.75;5285510;28;20466;-78
2022/07/22 04:17:42;;;;;;;19.37;8.53;;;;;;;14.56;100.00;101973.47;5285423;28;20124;-78
2022/07/22 04:20:14;;;;;;;11.50;8.07;;;;;;;14.60;100.00;101974.31;5285493;28;20029;-78
2022/07/22 04:22:45;;;;;;;17.20;8.27;;;;;;;14.59;100.00;101973.47;5285396;28;20059;-78
2022/07/22 04:25:16;;;;;;;18.20;7.70;;;;;;;14.72;100.00;101981.22;5285318;28;20028;-78
2022/07/22 04:27:48;;;;;;;15.53;8.67;;;;;;;14.74;100.00;101982.91;5285092;28;20030;-78
2022/07/22 04:30:20;;;;;;;23.23;8.35;;;;;;;14.74;100.00;101975.03;5285002;28;20384;-77
2022/07/22 04:32:51;;;;;;;13.57;8.00;;;;;;;14.76;100.00;101977.66;5285378;28;20363;-82
2022/07/22 04:35:23;;;;;;;15.47;7.77;;;;;;;14.74;100.00;101969.78;5286033;28;20048;-81
2022/07/22 04:37:54;;;;;;;14.30;8.23;;;;;;;14.81;100.00;101967.09;5285340;28;20071;-81
2022/07/22 04:40:25;;;;;;;15.60;7.83;;;;;;;14.82;100.00;101971.47;5267236;28;20058;-82
2022/07/22 04:42:57;;;;;;;12.23;8.50;;;;;;;14.84;100.00;101970.56;5285095;28;20091;-81
2022/07/22 04:45:28;;;;;;;18.23;8.03;;;;;;;14.91;100.00;101967.00;5285483;28;20044;-82
2022/07/22 04:48:00;;;;;;;16.17;8.37;;;;;;;14.91;100.00;101967.00;5285252;28;20028;-81
2022/07/22 04:50:31;;;;;;;17.03;8.70;;;;;;;14.92;100.00;101967.84;5287270;28;20091;-81
2022/07/22 04:53:03;;;;;;;16.07;7.70;;;;;;;14.89;100.00;101963.53;5293786;28;20040;-81
2022/07/22 04:55:34;;;;;;;15.20;8.07;;;;;;;15.08;100.00;101956.25;5298063;28;20041;-82
2022/07/22 04:58:05;;;;;;;18.60;8.60;;;;;;;15.11;100.00;101956.22;5293786;28;20086;-82
2022/07/22 05:00:37;;;;;;;13.00;7.83;;;;;;;15.11;100.00;101953.59;5286972;28;20057;-82
2022/07/22 05:03:08;;;;;;;28.23;8.53;;;;;;;15.04;100.00;101956.34;5284114;28;20029;-82
2022/07/22 05:05:40;;;;;;;16.47;7.40;;;;;;;15.02;100.00;101959.00;5266948;28;20040;-82
2022/07/22 05:08:11;;;;;;;19.30;9.07;;;;;;;15.08;100.00;101955.41;5284892;28;20028;-83
2022/07/22 05:10:42;;;;;;;22.10;9.87;;;;;;;15.13;100.00;101957.09;5266666;28;20093;-82
2022/07/22 05:13:14;;;;;;;18.10;9.10;;;;;;;15.22;100.00;101953.47;5266644;28;20493;-82
2022/07/22 05:15:45;;;;;;;22.97;10.23;;;;;;;15.24;100.00;101956.06;5284779;28;20076;-82
2022/07/22 05:18:16;;;;;;;19.27;10.37;;;;;;;15.26;100.00;101954.28;5286847;28;20036;-82
2022/07/22 05:20:48;;;;;;;14.70;9.37;;;;;;;15.26;100.00;101951.66;5292813;28;20089;-82
2022/07/22 05:23:20;;;;;;;21.40;10.02;;;;;;;15.38;100.00;101953.28;5291715;28;20024;-81
2022/07/22 05:25:51;;;;;;;14.87;10.57;;;;;;;15.29;100.00;101952.50;5290715;28;20025;-82
2022/07/22 05:28:23;;;;;;;20.10;9.90;;;;;;;15.27;100.00;101954.25;5284101;28;20124;-82
2022/07/22 05:30:54;;;;;;;16.20;10.02;;;;;;;15.33;100.00;101955.97;5284183;28;20039;-83
2022/07/22 05:33:26;;;;;;;22.23;10.53;;;;;;;15.32;100.00;101954.22;5284099;28;20032;-83
2022/07/22 05:35:58;;;;;;;18.63;9.45;;;;;;;15.33;100.00;101950.69;5284312;28;20086;-82
2022/07/22 05:38:32;;;;;;;14.60;9.67;;;;;;;15.31;100.00;101955.09;5284386;28;20478;-82
2022/07/22 05:41:03;;;;;;;18.98;9.82;;;;;;;15.30;100.00;101956.84;5283949;28;20036;-81
2022/07/22 05:43:35;;;;;;;19.33;9.37;;;;;;;15.32;100.00;101957.69;5283149;28;20048;-82
2022/07/22 05:46:09;;;;;;;16.52;9.70;;;;;;;15.38;100.00;101959.38;5284295;28;20081;-82
2022/07/22 05:48:40;;;;;;;18.92;9.55;;;;;;;15.37;100.00;101962.88;5283558;28;20036;-82
2022/07/22 05:51:13;;;;;;;14.37;10.10;;;;;;;15.66;100.00;101961.59;5283687;28;20035;-82
2022/07/22 05:53:44;;;;;;;17.30;9.85;;;;;;;15.75;100.00;101961.47;5284046;28;20071;-82
2022/07/22 05:56:16;;;;;;;20.57;9.40;;;;;;;15.88;100.00;101959.53;5283235;28;20028;-82
2022/07/22 05:58:47;;;;;;;18.07;9.93;;;;;;;15.98;100.00;101966.38;5265650;28;20383;-82
2022/07/22 06:01:19;;;;;;;20.43;9.13;;;;;;;15.99;100.00;101968.13;5283334;28;20039;-82
2022/07/22 06:03:50;;;;;;;21.67;8.90;;;;;;;16.09;100.00;101962.72;5265555;28;20032;-82
2022/07/22 06:06:22;;;;;;;14.90;9.10;;;;;;;16.24;100.00;101957.16;5283497;28;20545;-81
2022/07/22 06:08:53;;;;;;;19.07;8.80;;;;;;;16.25;97.26;101958.06;5283137;28;20064;-81
2022/07/22 06:11:24;;;;;;;13.00;8.63;;;;;;;16.37;96.66;101966.59;5265314;28;20029;-81
2022/07/22 06:13:56;;;;;;;19.97;8.27;;;;;;;16.58;96.39;101962.69;5281868;28;20191;-82
2022/07/22 06:16:27;;;;;;;13.83;7.03;;;;;;;16.78;94.70;101967.56;5282802;28;20033;-81
2022/07/22 06:18:58;;;;;;;13.20;6.70;;;;;;;16.98;94.20;101971.59;5282941;28;20082;-81
2022/07/22 06:21:30;;;;;;;16.53;7.07;;;;;;;16.92;92.41;101969.97;5283114;28;20123;-82
2022/07/22 06:24:01;;;;;;;14.83;6.07;;;;;;;16.90;90.47;101966.47;5283835;28;20028;-82
2022/07/22 06:26:33;;;;;;;14.43;6.00;;;;;;;16.88;88.66;101964.78;5265035;28;20035;-83
2022/07/22 06:29:04;;;;;;;19.80;6.93;;;;;;;16.94;91.65;101969.94;5282922;28;20024;-81
2022/07/22 06:31:35;;;;;;;10.93;4.80;;;;;;;16.99;89.52;101962.78;5282724;28;20166;-81
2022/07/22 06:34:07;;;;;;;11.17;5.70;;;;;;;16.88;90.56;101967.41;5264935;28;20036;-81
2022/07/22 06:36:38;;;;;;;11.23;5.57;;;;;;;16.85;90.31;101960.44;5282846;28;20039;-81
2022/07/22 06:39:10;;;;;;;11.73;5.97;;;;;;;16.82;88.89;101971.00;5282526;28;20031;-81
2022/07/22 06:41:41;;;;;;;11.10;5.93;;;;;;;16.81;88.40;101965.75;5282750;28;20087;-81
2022/07/22 06:44:13;;;;;;;9.50;5.10;;;;;;;17.01;89.88;101963.63;5281973;28;20423;-81
2022/07/22 06:46:44;;;;;;;13.67;6.77;;;;;;;17.06;88.08;101961.75;5282083;28;20036;-82
2022/07/22 06:49:15;;;;;;;13.47;5.30;;;;;;;17.09;86.75;101964.31;5282864;28;20166;-82
2022/07/22 06:51:47;;;;;;;9.73;5.00;;;;;;;17.25;85.86;101967.50;5282607;28;20033;-82
2022/07/22 06:54:18;;;;;;;11.63;4.60;;;;;;;17.40;85.96;101960.16;5282076;28;20032;-81
2022/07/22 06:56:50;;;;;;;10.03;5.03;;;;;;;17.47;84.73;101964.41;5282461;28;20324;-82
2022/07/22 06:59:22;;;;;;;6.60;3.45;;;;;;;17.65;84.18;101968.38;5288594;28;20036;-82
2022/07/22 07:01:53;;;;;;;7.53;3.17;;;;;;;17.67;79.73;101972.69;5282118;28;20094;-82
2022/07/22 07:04:24;;;;;;;9.47;3.83;;;;;;;17.75;81.79;101963.75;5282611;28;20130;-82
2022/07/22 07:06:56;;;;;;;7.33;3.33;;;;;;;17.91;80.49;101972.19;5282711;28;20028;-81
2022/07/22 07:09:27;;;;;;;5.27;3.17;;;;;;;18.01;80.38;101971.06;5282629;28;20478;-81
2022/07/22 07:11:58;;;;;;;6.17;3.03;;;;;;;18.09;72.19;101963.81;5281999;28;20094;-82
2022/07/22 07:14:30;;;;;;;9.00;2.60;;;;;;;18.00;73.36;101953.47;5281706;28;20098;-81
2022/07/22 07:17:01;;;;;;;7.90;3.10;;;;;;;17.95;72.70;101952.72;5281782;28;20032;-81
2022/07/22 07:19:32;;;;;;;5.77;3.20;;;;;;;17.95;76.09;101952.72;5281937;28;20043;-81
2022/07/22 07:22:04;;;;;;;5.63;2.27;;;;;;;18.21;74.29;101950.31;5281980;28;20094;-80
2022/07/22 07:24:35;;;;;;;5.33;2.60;;;;;;;18.46;75.34;101948.78;5281705;28;20067;-81
2022/07/22 07:27:06;;;;;;;5.80;2.00;;;;;;;18.79;71.71;101944.34;5281835;28;20090;-81
2022/07/22 07:29:38;;;;;;;4.90;2.00;;;;;;;19.08;70.34;101942.66;5282071;28;20032;-81
2022/07/22 07:32:09;;;;;;;5.37;2.50;;;;;;;19.44;69.41;101948.56;5282417;28;20032;-83
2022/07/22 07:34:41;;;;;;;5.90;2.57;;;;;;;19.67;66.46;101955.78;5282101;28;20060;-82
2022/07/22 07:37:12;;;;;;;7.47;2.70;;;;;;;19.81;65.65;101954.50;5281295;28;20028;-81
2022/07/22 07:39:43;;;;;;;3.07;1.93;;;;;;;19.93;64.41;101953.22;5281662;28;20040;-81
2022/07/22 07:42:15;;;;;;;6.80;3.30;;;;;;;20.13;66.34;101949.91;5281022;28;20037;-82
2022/07/22 07:44:46;;;;;;;4.13;2.13;;;;;;;20.33;63.47;101941.25;5281951;28;20047;-82
2022/07/22 07:47:20;;;;;;;4.23;1.90;;;;;;;20.42;62.44;101940.09;5281928;28;20102;-82
2022/07/22 07:49:51;;;;;;;3.78;1.40;;;;;;;20.71;61.77;101936.41;5281896;28;20033;-82
2022/07/22 07:52:23;;;;;;;5.13;1.80;;;;;;;20.81;61.11;101942.22;5281561;28;20040;-82
2022/07/22 07:54:55;;;;;;;4.80;1.60;;;;;;;20.76;56.08;101942.38;5281833;28;20048;-82
2022/07/22 07:57:26;;;;;;;5.70;1.70;;;;;;;20.77;55.82;101944.13;5281842;28;20120;-81
2022/07/22 07:59:58;;;;;;;4.90;2.00;;;;;;;20.80;57.13;101949.31;5282149;28;20123;-81
2022/07/22 08:02:29;;;;;;;4.00;1.70;;;;;;;20.33;58.29;101947.41;5281934;28;20032;-81
2022/07/22 08:05:01;;;;;;;5.40;2.00;;;;;;;19.86;56.99;101941.97;5263252;28;20060;-81
2022/07/22 08:07:33;;;;;;;4.65;1.70;;;;;;;19.53;57.52;101950.06;5281427;28;20051;-82
2022/07/22 08:10:06;;;;;;;5.27;2.37;;;;;;;19.63;62.90;101942.72;5281511;28;20432;-81
2022/07/22 08:12:37;;;;;;;6.00;2.20;;;;;;;19.63;63.75;101940.06;5263748;28;20028;-81
2022/07/22 08:15:10;;;;;;;4.17;2.47;;;;;;;19.16;62.11;101940.66;5281841;28;20104;-81
2022/07/22 08:17:41;;;;;;;6.40;2.70;;;;;;;19.23;65.83;101939.53;5281570;28;20490;-80
2022/07/22 08:20:12;;;;;;;5.67;2.40;;;;;;;19.05;62.91;101934.81;5281733;28;20032;-81
2022/07/22 08:22:44;;;;;;;6.20;2.63;;;;;;;18.97;63.59;101942.13;5281560;28;20078;-81
2022/07/22 08:25:15;;;;;;;7.07;2.53;;;;;;;18.95;67.52;101947.44;5283105;28;20028;-80
2022/07/22 08:27:47;;;;;;;6.13;2.87;;;;;;;19.18;70.47;101936.16;5286262;28;20353;-81
2022/07/22 08:30:19;;;;;;;3.13;1.93;;;;;;;19.64;67.41;101937.38;5290108;28;20032;-81
2022/07/22 08:32:51;;;;;;;6.82;2.63;;;;;;;20.22;61.49;101938.97;5298075;28;20340;-81
2022/07/22 08:35:22;;;;;;;5.27;2.40;;;;;;;20.42;59.78;101940.09;5295901;28;20033;-80
2022/07/22 08:37:54;;;;;;;5.60;2.20;;;;;;;20.69;63.06;101932.94;5289899;28;20093;-82
2022/07/22 08:40:26;;;;;;;3.80;2.10;;;;;;;21.18;60.73;101925.75;5267615;28;20043;-81
2022/07/22 08:43:00;;;;;;;4.90;2.20;;;;;;;21.39;59.97;101925.84;5285346;28;20045;-82
2022/07/22 08:45:33;;;;;;;4.82;2.30;;;;;;;21.62;59.00;101920.50;5285988;28;20053;-81
2022/07/22 08:48:05;;;;;;;5.30;2.43;;;;;;;21.95;58.29;101935.06;5286036;28;20178;-81
2022/07/22 08:50:36;;;;;;;3.80;1.92;;;;;;;21.70;56.02;101929.94;5289176;28;20032;-81
2022/07/22 08:53:12;;;;;;;4.70;2.53;;;;;;;20.86;56.60;101919.91;5294676;28;20103;-81
2022/07/22 08:55:46;;;;;;;6.18;2.72;;;;;;;20.21;56.54;101918.75;5293478;28;20025;-81
2022/07/22 08:58:17;;;;;;;4.88;2.30;;;;;;;19.81;59.96;101925.41;5294352;28;20032;-81
2022/07/22 09:01:07;;;;;;;3.53;2.10;;;;;;;20.22;61.55;101921.34;5284941;28;20021;-81
2022/07/22 09:03:47;;;;;;;6.45;2.05;;;;;;;20.34;62.28;101922.66;5267286;28;20077;-81
2022/07/22 09:06:21;;;;;;;3.83;2.22;;;;;;;20.27;62.42;101926.47;5284392;28;20089;-81
2022/07/22 09:08:58;;;;;;;6.63;2.65;;;;;;;20.20;61.94;101927.59;5285115;28;20274;-81
2022/07/22 09:11:30;;;;;;;3.83;2.22;;;;;;;20.38;60.46;101929.59;5285246;28;20054;-80
2022/07/22 09:14:02;;;;;;;3.50;2.15;;;;;;;20.47;60.77;101931.03;5285206;28;20028;-81
2022/07/22 09:16:45;;;;;;;4.17;1.97;;;;;;;20.47;61.64;101931.03;5266181;28;20537;-81
2022/07/22 09:19:16;;;;;;;4.65;2.03;;;;;;;20.37;58.67;101919.06;5284532;28;20349;-81
2022/07/22 09:21:49;;;;;;;8.80;3.80;;;;;;;20.73;57.44;101921.31;5284372;28;20069;-80
2022/07/22 09:24:32;;;;;;;3.72;2.15;;;;;;;20.67;59.06;101914.47;5288785;28;20105;-81
2022/07/22 09:27:06;;;;;;;8.88;3.35;;;;;;;20.82;57.17;101920.97;5284174;28;20028;-81
2022/07/22 09:29:37;;;;;;;6.60;2.80;;;;;;;20.77;57.65;101914.97;5283963;28;20036;-80
2022/07/22 09:32:08;;;;;;;4.37;2.83;;;;;;;20.89;59.21;101918.94;5284338;28;20089;-81
2022/07/22 09:34:40;;;;;;;4.60;2.27;;;;;;;21.08;59.93;101912.00;5284439;28;20060;-81
2022/07/22 09:37:11;;;;;;;3.47;2.47;;;;;;;21.29;57.84;101909.44;5266304;28;20440;-81
2022/07/22 09:39:43;;;;;;;4.60;2.27;;;;;;;21.51;58.12;101908.59;5284176;28;20041;-80
2022/07/22 09:42:16;;;;;;;5.13;3.03;;;;;;;21.56;58.79;101914.56;5283893;28;20601;-81
2022/07/22 09:44:47;;;;;;;6.75;2.80;;;;;;;21.60;57.74;101906.41;5284184;28;20455;-82
2022/07/22 09:47:28;;;;;;;7.73;3.00;;;;;;;22.44;59.50;101901.06;5283330;28;20031;-81
2022/07/22 09:50:00;;;;;;;4.97;2.38;;;;;;;22.48;55.42;101902.69;5283671;28;20033;-82
2022/07/22 09:52:31;;;;;;;4.40;2.80;;;;;;;22.98;55.55;101898.59;5283369;28;20495;-82
2022/07/22 09:55:05;;;;;;;4.13;3.03;;;;;;;23.12;52.22;101900.66;5283536;28;20761;-82
2022/07/22 09:57:36;;;;;;;4.75;2.33;;;;;;;23.54;52.71;101899.50;5283532;28;20450;-82
2022/07/22 10:00:09;;;;;;;5.50;2.70;;;;;;;24.03;49.80;101905.00;5265657;28;20119;-82
2022/07/22 10:02:52;;;;;;;7.10;2.53;;;;;;;24.43;50.33;101903.84;5283347;28;20522;-80
2022/07/22 10:05:30;;;;;;;6.45;2.60;;;;;;;24.41;48.96;101898.59;5283361;28;20070;-81
2022/07/22 10:08:03;;;;;;;4.57;2.20;;;;;;;24.74;47.05;101903.91;5283585;28;20032;-81
2022/07/22 10:10:37;;;;;;;5.88;2.50;;;;;;;24.62;48.94;101903.72;5283165;28;20351;-82
2022/07/22 10:13:08;;;;;;;5.90;2.88;;;;;;;24.93;46.66;101910.91;5282784;28;20056;-82
2022/07/22 10:15:40;;;;;;;4.85;2.50;;;;;;;25.62;44.15;101909.66;5283006;28;20052;-81
2022/07/22 10:18:17;;;;;;;5.45;2.75;;;;;;;25.71;46.96;101899.38;5282828;28;20033;-82
2022/07/22 10:21:01;;;;;;;5.28;2.95;;;;;;;25.30;45.85;101908.88;5283163;28;20173;-82
2022/07/22 10:23:32;;;;;;;6.18;3.15;;;;;;;24.44;43.99;101905.56;5283529;28;20032;-81
2022/07/22 10:26:04;;;;;;;7.05;2.80;;;;;;;24.14;47.61;101900.94;5283053;28;20032;-82
2022/07/22 10:28:37;;;;;;;8.18;4.43;;;;;;;23.85;47.25;101903.28;5282265;28;20086;-82
2022/07/22 10:31:21;;;;;;;5.68;2.97;;;;;;;23.33;50.03;101901.41;5282087;28;20475;-81
2022/07/22 10:33:56;;;;;;;5.57;3.10;;;;;;;22.84;49.82;101904.56;5282554;28;20037;-80
2022/07/22 10:36:37;;;;;;;7.10;3.38;;;;;;;22.43;50.23;101901.16;5282274;28;20029;-79
2022/07/22 10:39:13;;;;;;;6.70;3.57;;;;;;;21.85;53.12;101908.91;5282739;28;20451;-80
2022/07/22 10:41:45;;;;;;;6.18;3.40;;;;;;;21.98;52.61;101917.22;5282926;28;20097;-80
2022/07/22 10:44:46;;;;;;;6.80;3.00;;;;;;;22.40;54.65;101908.31;5283370;28;20136;-79
2022/07/22 10:47:56;;;;;;;6.80;3.58;;;;;;;22.63;50.82;101895.78;5282148;28;20076;-80
2022/07/22 10:50:40;;;;;;;5.88;3.22;;;;;;;24.17;52.29;101898.97;5282310;28;20036;-80
2022/07/22 10:53:17;;;;;;;8.27;3.10;;;;;;;26.53;44.76;101892.66;5282572;28;20082;-80
2022/07/22 10:56:05;;;;;;;6.45;3.53;;;;;;;27.89;39.86;101890.03;5282885;28;20468;-80
2022/07/22 10:58:38;;;;;;;5.25;3.47;;;;;;;27.84;40.43;101882.31;5282292;28;20037;-80
2022/07/22 11:01:12;;;;;;;7.78;3.00;;;;;;;27.51;36.19;101888.16;5281957;28;20452;-80
2022/07/22 11:03:45;;;;;;;5.82;3.10;;;;;;;27.94;34.99;101879.88;5282364;28;20028;-79
2022/07/22 11:06:18;;;;;;;4.60;2.60;;;;;;;28.74;38.84;101870.72;5264375;28;20050;-80
2022/07/22 11:08:57;;;;;;;4.10;2.75;;;;;;;28.23;39.74;101876.16;5282209;28;20032;-79
2022/07/22 11:11:42;;;;;;;5.80;3.40;;;;;;;26.97;40.68;101877.41;5282958;28;20048;-81
2022/07/22 11:14:25;;;;;;;6.00;3.10;;;;;;;26.63;39.12;101880.44;5282674;28;20032;-81
2022/07/22 11:17:05;;;;;;;7.13;3.50;;;;;;;26.10;41.63;101872.13;5281817;28;20107;-81
2022/07/22 11:19:39;;;;;;;6.32;3.28;;;;;;;25.14;41.27;101874.16;5264769;28;20063;-80
2022/07/22 11:22:13;;;;;;;7.70;3.50;;;;;;;25.42;46.00;101873.47;5282846;28;20432;-80
2022/07/22 11:24:48;;;;;;;8.18;4.43;;;;;;;25.68;42.99;101868.41;5282085;28;20063;-80
2022/07/22 11:27:22;;;;;;;5.70;3.80;;;;;;;26.40;41.43;101857.81;5282076;28;20068;-80
2022/07/22 11:29:56;;;;;;;5.25;3.88;;;;;;;27.82;38.36;101865.50;5281979;28;20082;-81
2022/07/22 11:32:30;;;;;;;6.75;4.28;;;;;;;29.70;37.35;101867.16;5282094;28;20028;-81
2022/07/22 11:35:01;;;;;;;7.15;4.15;;;;;;;31.40;32.24;101851.75;5264403;28;20522;-81
2022/07/22 11:37:33;;;;;;;7.35;3.85;;;;;;;33.38;30.14;101856.78;5281857;28;20123;-81
2022/07/22 11:40:07;;;;;;;6.57;4.28;;;;;;;34.01;28.50;101847.28;5282305;28;20025;-81
2022/07/22 11:42:39;;;;;;;6.28;3.78;;;;;;;34.72;28.92;101843.09;5263656;28;20074;-82